Time;durP1;ratioP1;P1;durP2;ratioP2;P2;SDS_P1;SDS_P2;PMS_P1;PMS_P2;Temp;Humidity;BMP_temperature;BMP_pressure;BME280_temperature;BME280_humidity;BME280_pressure;Samples;Min_cycle;Max_cycle;Signal;HPM_P1;HPM_P2
2022/01/28 00:00:37;;;;;;;16.80;2.53;;;5.50;99.90;;;;;;5099084;28;20554;-77
2022/01/28 00:05:29;;;;;;;20.13;3.60;;;5.40;99.90;;;;;;5068063;28;20144;-77
2022/01/28 00:07:55;;;;;;;14.10;2.90;;;5.30;99.90;;;;;;5059640;28;20197;-77
2022/01/28 00:10:23;;;;;;;15.63;2.40;;;5.20;99.90;;;;;;5071193;28;20037;-77
2022/01/28 00:15:36;;;;;;;18.13;3.10;;;5.10;99.90;;;;;;5054474;28;20064;-77
2022/01/28 00:39:37;;;;;;;18.67;3.10;;;5.40;99.90;;;;;;5065282;28;20504;-77
2022/01/28 00:42:04;;;;;;;16.73;2.63;;;5.40;99.90;;;;;;5069671;28;20033;-77
2022/01/28 00:44:29;;;;;;;19.08;2.67;;;5.40;99.90;;;;;;5038238;28;20064;-77
2022/01/28 00:46:55;;;;;;;16.33;2.80;;;5.40;99.90;;;;;;5072172;28;20036;-76
2022/01/28 00:49:22;;;;;;;24.00;3.30;;;5.50;99.90;;;;;;5036996;28;20033;-77
2022/01/28 00:51:48;;;;;;;17.27;3.25;;;5.50;99.90;;;;;;5060211;28;20158;-77
2022/01/28 00:54:13;;;;;;;15.65;2.90;;;5.50;99.90;;;;;;5056670;28;20124;-77
2022/01/28 00:56:39;;;;;;;16.10;3.38;;;5.50;99.90;;;;;;5060841;28;20460;-77
2022/01/28 00:59:05;;;;;;;21.58;3.40;;;5.60;99.90;;;;;;5069223;28;20407;-77
2022/01/28 01:01:31;;;;;;;19.08;3.47;;;5.70;99.90;;;;;;5068063;28;20033;-77
2022/01/28 01:03:58;;;;;;;15.68;3.20;;;5.80;99.90;;;;;;5070972;28;20032;-77
2022/01/28 01:06:23;;;;;;;17.27;3.00;;;5.90;99.90;;;;;;5060171;28;20055;-77
2022/01/28 01:08:49;;;;;;;13.48;2.55;;;5.70;99.90;;;;;;5057417;28;20067;-77
2022/01/28 01:11:19;;;;;;;11.50;2.67;;;5.70;99.90;;;;;;5044161;28;20043;-77
2022/01/28 01:13:45;;;;;;;11.82;2.22;;;5.60;99.90;;;;;;5054662;28;20120;-77
2022/01/28 01:16:13;;;;;;;12.70;2.28;;;5.50;99.90;;;;;;5066574;28;20178;-77
2022/01/28 01:18:50;;;;;;;13.57;2.92;;;5.40;99.90;;;;;;5068336;28;20043;-78
2022/01/28 01:21:22;;;;;;;21.23;2.60;;;5.40;99.90;;;;;;5048156;28;20051;-77
2022/01/28 01:23:52;;;;;;;15.55;2.80;;;5.30;99.90;;;;;;5066402;28;20079;-77
2022/01/28 01:26:18;;;;;;;17.20;3.30;;;5.40;99.90;;;;;;5066010;28;20391;-77
2022/01/28 01:28:43;;;;;;;17.20;2.55;;;5.30;99.90;;;;;;5033866;28;20053;-77
2022/01/28 01:31:14;;;;;;;17.58;2.65;;;5.40;99.90;;;;;;5039098;28;20035;-77
2022/01/28 01:34:10;;;;;;;15.13;2.85;;;5.40;99.90;;;;;;5069260;28;20067;-77
2022/01/28 01:36:26;;;;;;;16.20;3.22;;;5.40;99.90;;;;;;5043540;28;20072;-77
2022/01/28 01:38:51;;;;;;;16.23;3.38;;;5.30;99.90;;;;;;5054987;28;20077;-77
2022/01/28 01:41:28;;;;;;;17.58;3.08;;;5.40;99.90;;;;;;5071701;28;20052;-77
2022/01/28 01:44:07;;;;;;;22.25;3.33;;;5.40;99.90;;;;;;5070230;28;20434;-77
2022/01/28 01:52:03;;;;;;;23.70;3.53;;;5.40;99.90;;;;;;5064547;28;20003;-77
2022/01/28 01:54:35;;;;;;;19.70;3.25;;;5.40;99.90;;;;;;5061693;28;20056;-77
2022/01/28 01:57:02;;;;;;;28.63;4.68;;;5.40;99.90;;;;;;5066841;28;20501;-77
2022/01/28 01:59:27;;;;;;;22.17;3.75;;;5.50;99.90;;;;;;5088236;28;20056;-77
2022/01/28 02:01:53;;;;;;;21.70;3.70;;;5.50;99.90;;;;;;5071386;28;20041;-77
2022/01/28 02:04:19;;;;;;;20.05;3.40;;;5.60;99.90;;;;;;5054039;28;20036;-77
2022/01/28 02:06:45;;;;;;;21.73;4.88;;;5.60;99.90;;;;;;5070617;28;20125;-77
2022/01/28 02:09:11;;;;;;;;;;;5.60;99.90;;;;;;5056829;28;20106;-77
2022/01/28 02:11:40;;;;;;;25.95;4.30;;;5.60;99.90;;;;;;5054112;28;19912;-77
2022/01/28 02:14:06;;;;;;;19.05;3.83;;;5.70;99.90;;;;;;5065981;28;20048;-77
2022/01/28 02:16:32;;;;;;;24.25;3.97;;;5.80;99.90;;;;;;5057172;28;20041;-77
2022/01/28 02:18:58;;;;;;;21.38;3.80;;;5.80;99.90;;;;;;5069684;28;20114;-77
2022/01/28 02:21:24;;;;;;;21.15;3.30;;;5.90;99.90;;;;;;5044002;28;20085;-77
2022/01/28 02:23:55;;;;;;;23.52;4.03;;;5.90;99.90;;;;;;5054324;28;20049;-77
2022/01/28 02:26:21;;;;;;;17.10;3.33;;;5.90;99.90;;;;;;5080186;28;20068;-77
2022/01/28 02:28:51;;;;;;;18.75;3.45;;;5.90;99.90;;;;;;5071960;28;20083;-77
2022/01/28 02:31:21;;;;;;;19.02;4.00;;;5.90;99.90;;;;;;5055702;28;20055;-77
2022/01/28 02:33:48;;;;;;;19.20;3.30;;;5.90;99.90;;;;;;5069856;28;20052;-77
2022/01/28 02:36:14;;;;;;;30.95;4.78;;;5.90;99.90;;;;;;5103190;28;20040;-76
2022/01/28 02:38:39;;;;;;;21.30;3.47;;;5.90;99.90;;;;;;5056787;28;20056;-77
2022/01/28 02:41:06;;;;;;;15.77;3.53;;;5.90;99.90;;;;;;5071905;28;20036;-77
2022/01/28 02:44:01;;;;;;;18.48;3.72;;;5.90;99.90;;;;;;5065166;28;20040;-77
2022/01/28 02:46:19;;;;;;;17.75;3.60;;;5.90;99.90;;;;;;5054372;28;20348;-78
2022/01/28 02:48:55;;;;;;;18.35;3.65;;;5.80;99.90;;;;;;5048384;28;20037;-77
2022/01/28 02:51:22;;;;;;;22.17;3.92;;;5.90;99.90;;;;;;5056082;28;20040;-77
2022/01/28 02:53:57;;;;;;;23.48;4.20;;;5.90;99.90;;;;;;5066181;28;20049;-77
2022/01/28 02:56:36;;;;;;;17.85;4.18;;;5.90;99.90;;;;;;5072381;28;20056;-77
2022/01/28 02:59:02;;;;;;;22.38;4.40;;;5.80;99.90;;;;;;5072119;28;20044;-77
2022/01/28 03:01:28;;;;;;;21.27;4.70;;;5.80;99.90;;;;;;5063681;28;20057;-77
2022/01/28 03:03:55;;;;;;;17.55;3.47;;;5.90;99.90;;;;;;5045682;28;20365;-77
2022/01/28 03:06:22;;;;;;;21.77;3.70;;;5.80;99.90;;;;;;5045353;28;20072;-77
2022/01/28 03:08:57;;;;;;;18.38;3.22;;;5.90;99.90;;;;;;5066952;28;20040;-77
2022/01/28 03:16:40;;;;;;;12.73;3.00;;;5.90;99.90;;;;;;5067421;28;20098;-77
2022/01/28 03:19:18;;;;;;;13.60;3.33;;;5.90;99.90;;;;;;5089593;28;20488;-77
2022/01/28 03:21:53;;;;;;;16.75;3.53;;;5.90;99.90;;;;;;5060389;28;20044;-77
2022/01/28 03:24:19;;;;;;;16.63;3.25;;;5.80;99.90;;;;;;5057092;28;20044;-77
2022/01/28 03:26:49;;;;;;;18.60;3.70;;;5.70;99.90;;;;;;5067799;28;20037;-77
2022/01/28 03:29:15;;;;;;;15.50;2.67;;;5.70;99.90;;;;;;5070955;28;20157;-77
2022/01/28 03:31:40;;;;;;;13.73;3.00;;;5.70;99.90;;;;;;5057536;28;20127;-77
2022/01/28 03:34:06;;;;;;;15.55;3.47;;;5.60;99.90;;;;;;5070361;28;20052;-77
2022/01/28 03:36:32;;;;;;;15.50;3.05;;;5.60;99.90;;;;;;5041310;28;20034;-77
2022/01/28 03:38:58;;;;;;;12.90;3.00;;;5.60;99.90;;;;;;5068182;28;20132;-77
2022/01/28 03:41:24;;;;;;;13.82;3.13;;;5.70;99.90;;;;;;5037782;28;20080;-77
2022/01/28 03:43:57;;;;;;;23.38;3.65;;;5.70;99.90;;;;;;5039089;28;20033;-77
2022/01/28 03:46:24;;;;;;;15.23;3.20;;;5.70;99.90;;;;;;5060657;28;20106;-77
2022/01/28 03:48:50;;;;;;;19.42;2.72;;;5.70;99.90;;;;;;5047015;28;20373;-77
2022/01/28 03:51:15;;;;;;;14.23;2.97;;;5.70;99.90;;;;;;5066048;28;20056;-77
2022/01/28 03:53:41;;;;;;;12.55;2.80;;;5.70;99.90;;;;;;5052529;28;20299;-77
2022/01/28 03:56:07;;;;;;;14.20;2.72;;;5.80;99.90;;;;;;5053554;28;20049;-74
2022/01/28 03:58:32;;;;;;;17.23;3.42;;;5.70;99.90;;;;;;5070306;28;20084;-73
2022/01/28 04:00:59;;;;;;;12.18;2.55;;;5.70;99.90;;;;;;5070270;28;20048;-76
2022/01/28 04:03:40;;;;;;;21.05;3.50;;;5.60;99.90;;;;;;5068551;28;20040;-77
2022/01/28 04:11:38;;;;;;;14.40;3.28;;;5.50;99.90;;;;;;5069012;28;20069;-77
2022/01/28 04:14:15;;;;;;;11.20;2.33;;;5.50;99.90;;;;;;5071576;28;20511;-77
2022/01/28 04:19:25;;;;;;;12.75;2.45;;;5.50;99.90;;;;;;5071003;28;20013;-77
2022/01/28 04:21:51;;;;;;;14.65;3.00;;;5.40;99.90;;;;;;5099874;28;20059;-77
2022/01/28 04:24:17;;;;;;;16.27;3.08;;;5.40;99.90;;;;;;5060264;28;20098;-78
2022/01/28 04:26:43;;;;;;;17.35;3.17;;;5.40;99.90;;;;;;5077716;28;20479;-78
2022/01/28 04:29:11;;;;;;;15.40;3.17;;;5.30;99.90;;;;;;5084184;28;20095;-78
2022/01/28 04:31:42;;;;;;;17.27;2.85;;;5.30;99.90;;;;;;5098129;28;20044;-78
2022/01/28 04:34:09;;;;;;;16.05;2.72;;;5.20;99.90;;;;;;5070899;28;20052;-77
2022/01/28 04:36:39;;;;;;;18.20;3.38;;;5.20;99.90;;;;;;5055628;28;20051;-78
2022/01/28 04:42:12;;;;;;;18.65;3.38;;;5.20;99.90;;;;;;5050381;28;20490;-77
2022/01/28 04:47:24;;;;;;;21.17;3.88;;;5.10;99.90;;;;;;5068124;28;20476;-77
2022/01/28 05:00:33;;;;;;;20.42;3.40;;;5.20;99.90;;;;;;5069238;28;20498;-77
2022/01/28 05:26:55;;;;;;;16.30;3.25;;;4.60;99.90;;;;;;5069428;28;20063;-76
2022/01/28 05:29:21;;;;;;;16.10;3.33;;;4.60;99.90;;;;;;5053357;28;20052;-76
2022/01/28 05:31:49;;;;;;;17.30;3.05;;;4.60;99.90;;;;;;5063672;28;20037;-77
2022/01/28 05:34:15;;;;;;;20.75;3.67;;;4.70;99.90;;;;;;5066490;28;20037;-77
2022/01/28 05:36:41;;;;;;;19.02;3.22;;;4.80;99.90;;;;;;5055553;28;20129;-76
2022/01/28 05:39:07;;;;;;;17.60;3.00;;;4.80;99.90;;;;;;5053210;28;20480;-76
2022/01/28 05:41:32;;;;;;;12.32;2.53;;;4.90;99.90;;;;;;5056947;28;20503;-76
2022/01/28 05:44:00;;;;;;;12.98;2.75;;;4.90;99.90;;;;;;5085013;28;20049;-76
2022/01/28 05:46:28;;;;;;;13.20;3.05;;;5.00;99.90;;;;;;5057362;28;20044;-76
2022/01/28 05:48:56;;;;;;;18.73;3.47;;;5.00;99.90;;;;;;5064986;28;20365;-77
2022/01/28 05:51:21;;;;;;;18.40;3.33;;;5.10;99.90;;;;;;5064150;28;20047;-78
2022/01/28 05:53:47;;;;;;;17.65;3.22;;;5.10;99.90;;;;;;5043532;28;20045;-77
2022/01/28 05:56:13;;;;;;;18.60;3.58;;;5.20;99.90;;;;;;5068705;28;20799;-78
2022/01/28 05:58:39;;;;;;;18.20;3.20;;;5.20;99.90;;;;;;5052835;28;20059;-77
2022/01/28 06:01:04;;;;;;;19.42;2.97;;;5.20;99.90;;;;;;5043139;28;20051;-77
2022/01/28 06:03:30;;;;;;;19.42;3.13;;;5.20;99.90;;;;;;5047010;28;20046;-76
2022/01/28 06:05:56;;;;;;;21.08;3.40;;;5.30;99.90;;;;;;5057921;28;20041;-77
2022/01/28 06:08:21;;;;;;;14.30;2.88;;;5.40;99.90;;;;;;5061895;28;20053;-79
2022/01/28 06:10:47;;;;;;;17.98;3.15;;;5.40;99.90;;;;;;5056405;28;20041;-77
2022/01/28 06:13:13;;;;;;;14.30;3.63;;;5.40;99.90;;;;;;5058103;28;20048;-80
2022/01/28 06:15:43;;;;;;;19.58;3.08;;;5.40;99.90;;;;;;5065191;28;20083;-79
2022/01/28 06:18:12;;;;;;;15.13;3.15;;;5.50;99.90;;;;;;5065865;28;20068;-79
2022/01/28 06:20:38;;;;;;;13.27;2.92;;;5.50;99.90;;;;;;5065833;28;20098;-79
2022/01/28 06:23:04;;;;;;;19.23;3.00;;;5.50;99.90;;;;;;5072623;28;20036;-80
2022/01/28 06:25:30;;;;;;;15.48;2.85;;;5.40;99.90;;;;;;5067931;28;20044;-79
2022/01/28 06:27:56;;;;;;;18.90;2.97;;;5.50;99.90;;;;;;5060833;28;20073;-80
2022/01/28 06:30:22;;;;;;;13.70;2.90;;;5.40;99.90;;;;;;5097128;28;20068;-80
2022/01/28 06:32:49;;;;;;;19.40;3.00;;;5.30;99.90;;;;;;5061489;28;20052;-79
2022/01/28 06:35:14;;;;;;;;;;;5.30;99.90;;;;;;5064279;28;20168;-79
2022/01/28 06:37:42;;;;;;;15.07;3.10;;;5.30;99.90;;;;;;5073786;28;19920;-79
2022/01/28 06:40:12;;;;;;;17.23;3.25;;;5.30;99.90;;;;;;5045659;28;20048;-79
2022/01/28 06:42:38;;;;;;;13.13;2.50;;;5.20;99.90;;;;;;5069260;28;20052;-78
2022/01/28 06:45:05;;;;;;;15.18;3.40;;;5.20;99.90;;;;;;5058218;28;20502;-79
2022/01/28 06:47:31;;;;;;;20.98;3.72;;;5.20;99.90;;;;;;5065650;28;20072;-79
2022/01/28 06:49:57;;;;;;;17.63;3.22;;;5.20;99.90;;;;;;5072191;28;20036;-78
2022/01/28 06:52:23;;;;;;;18.90;2.95;;;5.20;99.90;;;;;;5072986;28;20051;-78
2022/01/28 06:54:48;;;;;;;19.60;3.42;;;5.20;99.90;;;;;;5073028;28;20044;-78
2022/01/28 06:57:14;;;;;;;17.17;3.08;;;5.10;99.90;;;;;;5072764;28;20083;-79
2022/01/28 06:59:40;;;;;;;14.57;2.92;;;5.10;99.90;;;;;;5066032;28;20063;-79
2022/01/28 07:02:06;;;;;;;16.75;3.20;;;5.00;99.90;;;;;;5070282;28;20060;-80
2022/01/28 07:04:32;;;;;;;16.17;2.72;;;5.00;99.90;;;;;;5059239;28;20651;-76
2022/01/28 07:06:58;;;;;;;11.82;2.60;;;5.00;99.90;;;;;;5062634;28;20047;-81
2022/01/28 07:09:23;;;;;;;17.23;3.03;;;4.90;99.90;;;;;;5065956;28;20036;-79
2022/01/28 07:11:49;;;;;;;13.77;2.63;;;4.90;99.90;;;;;;5062962;28;20040;-79
2022/01/28 07:14:15;;;;;;;16.35;2.63;;;4.80;99.90;;;;;;5055053;28;20033;-78
2022/01/28 07:16:41;;;;;;;15.15;2.60;;;4.80;99.90;;;;;;5053654;28;20033;-80
2022/01/28 07:19:08;;;;;;;11.70;2.40;;;4.70;99.90;;;;;;5083646;28;20567;-79
2022/01/28 07:21:34;;;;;;;19.20;2.88;;;4.80;99.90;;;;;;5065597;28;20048;-79
2022/01/28 07:24:00;;;;;;;22.08;3.40;;;4.80;99.90;;;;;;5064379;28;20115;-79
2022/01/28 07:26:25;;;;;;;16.30;3.00;;;4.80;99.90;;;;;;5040056;28;20036;-79
2022/01/28 07:28:52;;;;;;;20.38;2.78;;;4.80;99.90;;;;;;5046701;28;20486;-79
2022/01/28 07:31:19;;;;;;;15.15;2.97;;;4.90;99.90;;;;;;5037219;28;20120;-77
2022/01/28 07:33:45;;;;;;;20.55;3.67;;;4.80;99.90;;;;;;5047303;28;20071;-77
2022/01/28 07:36:11;;;;;;;14.48;2.67;;;4.80;99.90;;;;;;5069989;28;20048;-76
2022/01/28 07:38:37;;;;;;;16.95;3.55;;;4.70;99.90;;;;;;5072022;28;20044;-76
2022/01/28 07:41:04;;;;;;;12.38;2.70;;;4.80;99.90;;;;;;5071789;28;20052;-76
2022/01/28 07:43:31;;;;;;;14.25;2.60;;;4.80;99.90;;;;;;5072541;28;20044;-76
2022/01/28 07:45:57;;;;;;;18.17;3.05;;;4.80;99.90;;;;;;5040793;28;20045;-76
2022/01/28 07:48:22;;;;;;;17.75;2.95;;;4.80;99.90;;;;;;5060757;28;20039;-76
2022/01/28 07:50:48;;;;;;;17.20;3.38;;;4.80;99.90;;;;;;5042926;28;20158;-76
2022/01/28 07:53:16;;;;;;;21.58;3.83;;;4.80;99.90;;;;;;5055605;28;20044;-76
2022/01/28 07:55:43;;;;;;;17.98;3.72;;;4.90;99.90;;;;;;5072424;28;20053;-77
2022/01/28 07:58:09;;;;;;;15.35;3.35;;;4.90;99.90;;;;;;5070802;28;20143;-76
2022/01/28 08:00:35;;;;;;;21.85;3.28;;;4.80;99.90;;;;;;5071307;28;20360;-76
2022/01/28 08:03:00;;;;;;;20.02;3.20;;;4.90;99.90;;;;;;5068439;28;20123;-74
2022/01/28 08:05:27;;;;;;;20.58;3.28;;;4.80;99.90;;;;;;5050197;28;20128;-76
2022/01/28 08:07:52;;;;;;;17.98;3.88;;;4.90;99.90;;;;;;5069201;28;20053;-78
2022/01/28 08:10:19;;;;;;;10.93;2.53;;;4.90;99.90;;;;;;5070471;28;20110;-78
2022/01/28 08:12:51;;;;;;;13.70;2.75;;;4.80;99.90;;;;;;5052329;28;20043;-78
2022/01/28 08:15:18;;;;;;;8.27;2.65;;;4.80;99.90;;;;;;5053822;28;20132;-76
2022/01/28 08:17:45;;;;;;;10.38;2.17;;;4.80;99.90;;;;;;5039262;28;20123;-76
2022/01/28 08:20:12;;;;;;;19.35;3.22;;;4.90;99.90;;;;;;5060914;28;20489;-77
2022/01/28 08:22:53;;;;;;;20.05;2.67;;;5.00;99.90;;;;;;5068940;28;20120;-76
2022/01/28 08:25:21;;;;;;;17.42;3.13;;;5.00;99.90;;;;;;5065684;28;20045;-76
2022/01/28 08:27:48;;;;;;;15.45;2.80;;;5.10;99.90;;;;;;5052834;28;20622;-77
2022/01/28 08:30:16;;;;;;;20.45;3.55;;;5.10;99.90;;;;;;5056289;28;20368;-77
2022/01/28 08:32:43;;;;;;;16.73;3.33;;;5.10;99.90;;;;;;5070243;28;20049;-77
2022/01/28 08:35:09;;;;;;;14.40;3.20;;;5.10;99.90;;;;;;5068581;28;20126;-77
2022/01/28 08:37:35;;;;;;;24.70;3.95;;;5.10;99.90;;;;;;5063656;28;20120;-77
2022/01/28 08:40:02;;;;;;;18.08;3.13;;;5.20;99.90;;;;;;5040958;28;20445;-77
2022/01/28 08:42:28;;;;;;;15.55;2.85;;;5.20;99.90;;;;;;5064802;28;20040;-75
2022/01/28 08:44:54;;;;;;;9.93;2.40;;;5.10;99.90;;;;;;5070728;28;20044;-74
2022/01/28 08:47:19;;;;;;;10.18;2.45;;;5.10;99.90;;;;;;5054280;28;20041;-75
2022/01/28 08:49:48;;;;;;;15.90;2.90;;;5.20;99.90;;;;;;5059652;28;20044;-74
2022/01/28 08:52:14;;;;;;;13.57;2.80;;;5.10;99.90;;;;;;5052657;28;20051;-74
2022/01/28 08:54:41;;;;;;;17.67;3.00;;;5.20;99.90;;;;;;5070298;28;20044;-74
2022/01/28 08:57:07;;;;;;;18.85;3.88;;;5.10;99.90;;;;;;5033533;28;20150;-74
2022/01/28 08:59:32;;;;;;;17.73;3.53;;;5.10;99.90;;;;;;5050692;28;20427;-75
2022/01/28 09:01:58;;;;;;;23.27;3.72;;;5.20;99.90;;;;;;5067460;28;20116;-75
2022/01/28 09:04:24;;;;;;;14.55;3.22;;;5.20;99.90;;;;;;5034423;28;20059;-74
2022/01/28 09:06:50;;;;;;;19.02;3.58;;;5.20;99.90;;;;;;5063590;28;20036;-75
2022/01/28 09:09:19;;;;;;;19.60;3.17;;;5.30;99.90;;;;;;5061390;28;20070;-75
2022/01/28 09:14:12;;;;;;;17.98;3.08;;;5.30;99.90;;;;;;5063922;28;20052;-75
2022/01/28 09:16:37;;;;;;;17.60;2.85;;;5.40;99.90;;;;;;5069083;28;20131;-74
2022/01/28 09:19:03;;;;;;;16.88;2.95;;;5.50;99.90;;;;;;5067552;28;20200;-75
2022/01/28 09:21:29;;;;;;;19.15;3.00;;;5.60;99.90;;;;;;5063115;28;20044;-75
2022/01/28 09:23:54;;;;;;;18.25;3.08;;;5.80;99.90;;;;;;5060472;28;20124;-75
2022/01/28 09:26:20;;;;;;;18.10;3.15;;;5.80;99.90;;;;;;5044941;28;20563;-76
2022/01/28 09:28:46;;;;;;;18.85;3.42;;;5.90;99.90;;;;;;5062978;28;20543;-75
2022/01/28 09:31:12;;;;;;;18.90;3.35;;;5.90;99.90;;;;;;5061137;28;20090;-75
2022/01/28 09:33:37;;;;;;;14.93;2.70;;;5.90;99.90;;;;;;5061529;28;20040;-79
2022/01/28 09:36:05;;;;;;;15.48;2.90;;;5.90;99.90;;;;;;5051964;28;20040;-78
2022/01/28 09:38:31;;;;;;;13.60;3.30;;;6.00;99.90;;;;;;5049029;28;20511;-76
2022/01/28 09:40:59;;;;;;;14.15;3.15;;;6.00;99.90;;;;;;5070036;28;20076;-78
2022/01/28 09:43:26;;;;;;;13.52;2.85;;;6.10;99.90;;;;;;5066649;28;20048;-79
2022/01/28 09:45:52;;;;;;;11.65;2.67;;;6.10;99.90;;;;;;5058716;28;20055;-78
2022/01/28 09:48:19;;;;;;;18.58;3.60;;;6.20;99.90;;;;;;5062883;28;20110;-77
2022/01/28 09:50:46;;;;;;;18.60;3.33;;;6.20;99.90;;;;;;5063443;28;20037;-78
2022/01/28 09:53:13;;;;;;;12.45;2.92;;;6.20;99.90;;;;;;5060678;28;20129;-80
2022/01/28 09:55:39;;;;;;;12.93;2.70;;;6.30;99.90;;;;;;5057009;28;20048;-78
2022/01/28 09:58:05;;;;;;;14.90;3.25;;;6.30;99.90;;;;;;5048285;28;20128;-79
2022/01/28 10:00:33;;;;;;;18.60;3.55;;;6.40;99.90;;;;;;5058631;28;20072;-79
2022/01/28 10:03:00;;;;;;;13.10;2.85;;;6.40;99.90;;;;;;5083265;28;20140;-78
2022/01/28 10:05:28;;;;;;;18.60;3.53;;;6.50;99.90;;;;;;5093358;28;20036;-70
2022/01/28 10:08:05;;;;;;;20.45;3.58;;;6.50;99.90;;;;;;5053876;28;20054;-78
2022/01/28 10:10:54;;;;;;;20.83;3.55;;;6.60;99.90;;;;;;5052838;28;20037;-79
2022/01/28 10:13:25;;;;;;;14.80;3.38;;;6.60;99.90;;;;;;5069116;28;20130;-79
2022/01/28 10:16:02;;;;;;;18.15;3.47;;;6.60;99.90;;;;;;5072152;28;20044;-79
2022/01/28 10:18:43;;;;;;;24.10;4.22;;;6.60;99.90;;;;;;5042874;28;20119;-79
2022/01/28 10:21:23;;;;;;;20.33;3.80;;;6.60;99.90;;;;;;5063909;28;20515;-79
2022/01/28 10:24:04;;;;;;;20.27;4.30;;;6.60;99.90;;;;;;5065125;28;20565;-79
2022/01/28 10:26:46;;;;;;;22.10;3.88;;;6.60;99.90;;;;;;5049639;28;20419;-79
2022/01/28 10:29:15;;;;;;;26.50;3.97;;;6.60;99.90;;;;;;5059214;28;20043;-81
2022/01/28 10:31:48;;;;;;;23.63;4.07;;;6.60;99.90;;;;;;5059719;28;20110;-82
2022/01/28 10:34:26;;;;;;;17.50;3.20;;;6.60;99.90;;;;;;5058283;28;20040;-80
2022/01/28 10:37:25;;;;;;;20.52;3.28;;;6.60;99.90;;;;;;5060815;28;20033;-82
2022/01/28 10:39:54;;;;;;;21.35;3.33;;;6.70;99.90;;;;;;5079459;28;20040;-83
2022/01/28 10:42:50;;;;;;;21.40;3.20;;;6.80;99.90;;;;;;5062187;28;20167;-82
2022/01/28 10:45:19;;;;;;;17.13;3.63;;;6.80;99.90;;;;;;5053247;28;20045;-80
2022/01/28 10:47:45;;;;;;;19.40;2.70;;;6.80;99.90;;;;;;5065114;28;20044;-81
2022/01/28 10:50:31;;;;;;;20.05;3.35;;;6.80;99.90;;;;;;5079479;28;20476;-82
2022/01/28 10:53:07;;;;;;;28.38;4.05;;;6.90;99.90;;;;;;5070567;28;20040;-82
2022/01/28 10:55:35;;;;;;;12.52;3.08;;;6.90;99.90;;;;;;5075365;28;20098;-80
2022/01/28 10:58:04;;;;;;;14.20;3.10;;;6.90;99.90;;;;;;5101924;28;20167;-79
2022/01/28 11:00:33;;;;;;;16.77;3.33;;;6.90;99.90;;;;;;5044879;28;20044;-80
2022/01/28 11:03:01;;;;;;;21.55;4.15;;;6.90;99.90;;;;;;5094199;28;20048;-80
2022/01/28 11:05:29;;;;;;;18.80;3.10;;;6.90;99.90;;;;;;5071821;28;20400;-80
2022/01/28 11:07:56;;;;;;;25.50;3.60;;;6.90;99.90;;;;;;5050485;28;20041;-79
2022/01/28 11:10:22;;;;;;;13.93;2.80;;;7.00;99.90;;;;;;5058818;28;20039;-80
2022/01/28 11:12:50;;;;;;;14.35;2.75;;;7.10;99.90;;;;;;5043295;28;20033;-79
2022/01/28 11:15:16;;;;;;;13.60;3.30;;;7.40;99.90;;;;;;5071488;28;20055;-79
2022/01/28 11:17:42;;;;;;;11.15;2.40;;;7.50;99.90;;;;;;5071719;28;20538;-79
2022/01/28 11:20:09;;;;;;;18.30;3.00;;;7.50;99.90;;;;;;5073052;28;20049;-80
2022/01/28 11:23:08;;;;;;;19.08;3.90;;;7.40;99.90;;;;;;5056848;28;20183;-79
2022/01/28 11:25:54;;;;;;;10.95;2.70;;;7.40;99.90;;;;;;5103859;28;20203;-79
2022/01/28 11:28:20;;;;;;;17.80;2.85;;;7.30;99.90;;;;;;5068316;28;20075;-80
2022/01/28 11:30:51;;;;;;;17.67;3.80;;;7.20;99.90;;;;;;5040595;28;20061;-79
2022/01/28 11:33:18;;;;;;;18.63;3.53;;;7.10;99.90;;;;;;5053947;28;20050;-79
2022/01/28 11:35:47;;;;;;;15.95;3.05;;;7.00;99.90;;;;;;5053136;28;20056;-80
2022/01/28 11:38:25;;;;;;;13.82;2.65;;;6.90;99.90;;;;;;5054609;28;20384;-80
2022/01/28 11:40:52;;;;;;;17.80;3.08;;;6.90;99.90;;;;;;5071230;28;20104;-80
2022/01/28 11:43:20;;;;;;;18.13;3.10;;;7.10;99.90;;;;;;5064947;28;20170;-80
2022/01/28 11:45:46;;;;;;;19.60;2.85;;;7.30;99.90;;;;;;5078406;28;20037;-79
2022/01/28 11:48:11;;;;;;;14.40;3.35;;;7.40;99.90;;;;;;5069185;28;20090;-79
2022/01/28 11:50:37;;;;;;;15.55;3.42;;;7.50;99.90;;;;;;5070599;28;20507;-79
2022/01/28 11:53:22;;;;;;;15.95;3.42;;;7.70;99.90;;;;;;5052849;28;20047;-78
2022/01/28 11:56:01;;;;;;;15.45;3.35;;;7.80;99.90;;;;;;5064823;28;20037;-78
2022/01/28 11:58:50;;;;;;;16.85;2.90;;;7.70;99.90;;;;;;5042721;28;20061;-78
2022/01/28 12:01:21;;;;;;;13.63;3.45;;;7.60;99.90;;;;;;5068200;28;20130;-76
2022/01/28 12:03:47;;;;;;;15.55;3.05;;;7.70;99.90;;;;;;5076348;28;20083;-78
2022/01/28 12:06:13;;;;;;;19.85;3.05;;;7.60;99.90;;;;;;5074665;28;20407;-78
2022/01/28 12:08:41;;;;;;;17.92;3.40;;;7.50;99.90;;;;;;5070517;28;20036;-78
2022/01/28 12:11:09;;;;;;;12.70;2.42;;;7.60;99.90;;;;;;5084712;28;20041;-78
2022/01/28 12:14:01;;;;;;;15.77;2.88;;;7.70;99.90;;;;;;5075780;28;20163;-79
2022/01/28 12:16:30;;;;;;;17.48;3.25;;;7.50;99.90;;;;;;5071429;28;20492;-78
2022/01/28 12:18:58;;;;;;;16.80;2.88;;;7.40;99.90;;;;;;5048731;28;20033;-78
2022/01/28 12:21:27;;;;;;;16.20;2.97;;;7.40;99.90;;;;;;5067500;28;20045;-78
2022/01/28 12:24:14;;;;;;;12.15;2.85;;;7.30;99.90;;;;;;5069702;28;20051;-77
2022/01/28 12:27:17;;;;;;;15.70;2.90;;;7.30;99.90;;;;;;5103618;28;20125;-77
2022/01/28 12:29:49;;;;;;;12.30;2.60;;;7.30;99.90;;;;;;5104419;28;20144;-73
2022/01/28 12:32:21;;;;;;;16.15;2.72;;;7.40;99.90;;;;;;5069361;28;20056;-77
2022/01/28 12:34:47;;;;;;;12.45;2.72;;;7.30;99.90;;;;;;5051244;28;20048;-75
2022/01/28 12:37:13;;;;;;;14.27;2.60;;;7.40;99.90;;;;;;5066879;28;20048;-80
2022/01/28 12:39:49;;;;;;;;;;;7.20;99.90;;;;;;5071283;28;20503;-81
2022/01/28 12:42:24;;;;;;;12.20;2.63;;;7.20;99.90;;;;;;5046594;28;19916;-80
2022/01/28 12:44:55;;;;;;;15.40;2.40;;;7.30;99.90;;;;;;5067210;28;20109;-80
2022/01/28 12:47:21;;;;;;;17.85;2.83;;;7.20;99.90;;;;;;5080895;28;20052;-80
2022/01/28 12:49:57;;;;;;;15.40;2.83;;;7.20;99.90;;;;;;5030429;28;20190;-79
2022/01/28 12:52:22;;;;;;;13.45;2.67;;;7.30;99.90;;;;;;5071279;28;20039;-80
2022/01/28 12:54:48;;;;;;;14.40;2.42;;;7.40;99.90;;;;;;5060823;28;20472;-79
2022/01/28 12:57:17;;;;;;;14.25;2.65;;;7.50;99.90;;;;;;5062017;28;20134;-79
2022/01/28 12:59:45;;;;;;;14.00;2.92;;;7.70;99.90;;;;;;5060471;28;20058;-81
2022/01/28 13:02:11;;;;;;;11.20;2.50;;;7.80;99.90;;;;;;5063819;28;20071;-80
2022/01/28 13:10:25;;;;;;;17.02;2.90;;;7.90;99.90;;;;;;5067791;28;20067;-82
2022/01/28 13:12:52;;;;;;;15.80;2.83;;;7.70;99.90;;;;;;5045123;28;20052;-81
2022/01/28 13:15:19;;;;;;;12.90;2.60;;;7.70;99.90;;;;;;5068051;28;20133;-82
2022/01/28 13:17:58;;;;;;;;;;;7.60;99.90;;;;;;5071747;28;20498;-79
2022/01/28 13:20:32;;;;;;;21.38;3.08;;;7.60;99.90;;;;;;5069985;28;19995;-81
2022/01/28 13:22:57;;;;;;;16.15;3.03;;;7.70;99.90;;;;;;5072114;28;20129;-80
2022/01/28 13:25:25;;;;;;;18.52;3.03;;;7.70;99.90;;;;;;5067419;28;20072;-81
2022/01/28 13:27:58;;;;;;;14.35;2.90;;;7.60;99.90;;;;;;5065479;28;20033;-83
2022/01/28 13:30:25;;;;;;;12.27;2.80;;;7.70;99.90;;;;;;5098443;28;20294;-78
2022/01/28 13:32:52;;;;;;;13.38;2.85;;;7.80;99.90;;;;;;5046059;28;20036;-78
2022/01/28 13:35:22;;;;;;;11.35;2.50;;;8.00;99.90;;;;;;5074346;28;20138;-79
2022/01/28 13:37:55;;;;;;;10.05;2.42;;;8.00;99.90;;;;;;5075245;28;20545;-79
2022/01/28 13:40:20;;;;;;;17.23;3.85;;;8.00;99.90;;;;;;5058297;28;20060;-79
2022/01/28 13:43:11;;;;;;;11.82;2.25;;;8.00;99.90;;;;;;5058661;28;20040;-79
2022/01/28 13:45:47;;;;;;;11.20;2.42;;;7.90;99.90;;;;;;5057411;28;20091;-80
2022/01/28 13:48:20;;;;;;;15.43;2.92;;;7.70;99.90;;;;;;5054923;28;20830;-79
2022/01/28 13:50:53;;;;;;;12.85;2.45;;;7.80;99.90;;;;;;5095471;28;20113;-80
2022/01/28 13:55:54;;;;;;;16.23;2.83;;;8.20;99.90;;;;;;5070470;28;20071;-79
2022/01/28 13:58:20;;;;;;;10.05;2.45;;;8.20;99.90;;;;;;5067921;28;20487;-80
2022/01/28 14:00:49;;;;;;;13.07;2.47;;;8.20;99.90;;;;;;5049601;28;20048;-80
2022/01/28 14:03:15;;;;;;;13.65;2.22;;;8.10;99.90;;;;;;5048245;28;20575;-81
2022/01/28 14:05:53;;;;;;;;;;;8.10;99.90;;;;;;5037927;28;20342;-80
2022/01/28 14:08:42;;;;;;;13.88;2.53;;;7.90;99.90;;;;;;5074258;28;19974;-79
2022/01/28 14:11:40;;;;;;;13.43;2.10;;;7.70;99.90;;;;;;5054752;28;20379;-80
2022/01/28 14:14:32;;;;;;;;;;;7.50;99.90;;;;;;5057400;28;20044;-80
2022/01/28 14:17:00;;;;;;;11.57;2.22;;;7.50;99.90;;;;;;5067377;28;19920;-79
2022/01/28 14:19:27;;;;;;;10.10;2.00;;;7.50;99.90;;;;;;5083626;28;20050;-79
2022/01/28 14:21:54;;;;;;;13.20;2.17;;;7.50;99.90;;;;;;5072010;28;20127;-79
2022/01/28 14:24:28;;;;;;;11.23;2.60;;;7.50;99.90;;;;;;5057334;28;20032;-79
2022/01/28 14:32:18;;;;;;;12.02;2.38;;;7.60;99.90;;;;;;5073854;28;20052;-80
2022/01/28 14:34:46;;;;;;;16.88;2.40;;;7.60;99.90;;;;;;5074001;28;20098;-78
2022/01/28 14:37:12;;;;;;;12.02;2.35;;;7.50;99.90;;;;;;5055764;28;20082;-79
2022/01/28 14:39:38;;;;;;;;;;;7.50;99.90;;;;;;5073852;28;20041;-80